createdAt,value
2023-04-13T00:00:16.315Z,1.80
2023-04-13T00:02:45.380Z,2.45
2023-04-13T00:05:14.019Z,2.45
2023-04-13T00:07:43.350Z,2.03
2023-04-13T00:10:12.110Z,2.10
2023-04-13T00:12:43.256Z,2.10
2023-04-13T00:15:11.692Z,2.08
2023-04-13T00:17:39.809Z,2.35
2023-04-13T00:20:12.978Z,2.13
2023-04-13T00:22:41.515Z,2.00
2023-04-13T00:25:10.613Z,2.10
2023-04-13T00:27:39.673Z,2.42
2023-04-13T00:30:11.458Z,2.03
2023-04-13T00:32:42.759Z,2.47
2023-04-13T00:35:12.781Z,2.20
2023-04-13T00:37:43.406Z,2.65
2023-04-13T00:40:13.669Z,2.25
2023-04-13T00:42:44.122Z,2.67
2023-04-13T00:45:14.705Z,2.67
2023-04-13T00:47:46.999Z,3.05
2023-04-13T00:50:18.129Z,3.15
2023-04-13T00:52:47.246Z,2.92
2023-04-13T00:55:21.117Z,2.42
2023-04-13T00:57:52.668Z,2.60
2023-04-13T01:00:24.887Z,2.47
2023-04-13T01:02:53.647Z,2.53
2023-04-13T01:05:23.394Z,2.30
2023-04-13T01:08:01.026Z,2.38
2023-04-13T01:10:35.087Z,2.30
2023-04-13T01:13:11.420Z,2.33
2023-04-13T01:15:47.104Z,2.25
2023-04-13T01:18:17.452Z,2.15
2023-04-13T01:20:47.628Z,2.33
2023-04-13T01:23:28.514Z,2.25
2023-04-13T01:25:59.627Z,2.30
2023-04-13T01:28:30.029Z,2.40
2023-04-13T01:31:00.647Z,1.88
2023-04-13T01:33:30.970Z,1.73
2023-04-13T01:36:02.574Z,1.92
2023-04-13T01:38:31.628Z,1.90
2023-04-13T01:40:59.810Z,1.80
2023-04-13T01:43:31.263Z,1.95
2023-04-13T01:46:04.854Z,2.15
2023-04-13T01:48:40.527Z,2.42
2023-04-13T01:51:13.568Z,1.90
2023-04-13T01:53:45.030Z,1.85
2023-04-13T01:56:13.984Z,2.00
2023-04-13T01:58:44.633Z,1.98
2023-04-13T02:01:12.772Z,2.00
2023-04-13T02:03:43.446Z,2.65
2023-04-13T02:06:12.209Z,2.00
2023-04-13T02:08:40.749Z,2.65
2023-04-13T02:11:10.571Z,2.67
2023-04-13T02:13:38.681Z,2.70
2023-04-13T02:16:09.176Z,2.67
2023-04-13T02:18:37.623Z,2.58
2023-04-13T02:21:09.346Z,2.95
2023-04-13T02:23:38.108Z,2.85
2023-04-13T02:26:08.589Z,2.70
2023-04-13T02:28:37.045Z,2.88
2023-04-13T02:31:06.217Z,2.72
2023-04-13T02:33:36.530Z,2.78
2023-04-13T02:36:05.962Z,3.28
2023-04-13T02:38:34.364Z,3.28
2023-04-13T02:41:02.818Z,2.95
2023-04-13T02:43:31.498Z,3.45
2023-04-13T02:45:59.813Z,3.28
2023-04-13T02:48:28.558Z,2.88
2023-04-13T02:50:58.005Z,2.92
2023-04-13T02:53:26.520Z,2.70
2023-04-13T02:55:55.563Z,2.47
2023-04-13T02:58:24.042Z,3.20
2023-04-13T03:00:52.231Z,2.40
2023-04-13T03:03:20.647Z,3.13
2023-04-13T03:05:50.874Z,3.20
2023-04-13T03:08:20.412Z,3.53
2023-04-13T03:10:48.491Z,3.75
2023-04-13T03:13:16.828Z,3.03
2023-04-13T03:15:45.280Z,3.42
2023-04-13T03:18:14.096Z,2.60
2023-04-13T03:20:42.614Z,2.78
2023-04-13T03:23:10.705Z,3.00
2023-04-13T03:25:41.184Z,2.78
2023-04-13T03:28:09.287Z,2.97
2023-04-13T03:30:37.917Z,2.45
2023-04-13T03:33:06.538Z,1.65
2023-04-13T03:35:34.631Z,1.98
2023-04-13T03:38:02.706Z,2.17
2023-04-13T03:40:30.808Z,1.80
2023-04-13T03:43:00.907Z,2.30
2023-04-13T03:45:29.107Z,2.38
2023-04-13T03:47:57.639Z,2.10
2023-04-13T03:50:25.820Z,2.50
2023-04-13T03:52:54.214Z,1.80
2023-04-13T03:55:23.441Z,1.90
2023-04-13T03:57:51.683Z,2.58
2023-04-13T04:00:21.385Z,2.25
2023-04-13T04:02:49.981Z,1.90
2023-04-13T04:05:18.637Z,1.60
2023-04-13T04:07:46.888Z,2.10
2023-04-13T04:10:17.712Z,1.90
2023-04-13T04:12:46.126Z,1.85
2023-04-13T04:15:14.210Z,1.73
2023-04-13T04:17:43.709Z,1.77
2023-04-13T04:20:12.810Z,1.77
2023-04-13T04:22:41.893Z,1.52
2023-04-13T04:25:10.520Z,1.88
2023-04-13T04:27:39.209Z,2.22
2023-04-13T04:30:11.108Z,1.90
2023-04-13T04:32:40.864Z,2.60
2023-04-13T04:35:14.334Z,2.05
2023-04-13T04:37:42.836Z,2.22
2023-04-13T04:40:13.015Z,2.42
2023-04-13T04:42:41.407Z,2.38
2023-04-13T04:45:12.106Z,2.20
2023-04-13T04:47:43.500Z,1.80
2023-04-13T04:50:14.761Z,1.65
2023-04-13T04:52:43.208Z,1.60
2023-04-13T04:55:11.758Z,1.30
2023-04-13T04:57:40.089Z,1.42
2023-04-13T05:00:15.265Z,1.35
2023-04-13T05:02:44.317Z,1.20
2023-04-13T05:05:14.043Z,1.20
2023-04-13T05:07:42.240Z,0.90
2023-04-13T05:10:11.271Z,0.82
2023-04-13T05:12:39.338Z,0.80
2023-04-13T05:15:09.041Z,0.90
2023-04-13T05:17:37.455Z,1.10
2023-04-13T05:20:07.636Z,1.00
2023-04-13T05:22:37.560Z,1.30
2023-04-13T05:25:06.967Z,0.68
2023-04-13T05:27:35.036Z,0.88
2023-04-13T05:30:04.012Z,1.13
2023-04-13T05:32:35.375Z,1.00
2023-04-13T05:35:04.731Z,0.85
2023-04-13T05:37:33.119Z,1.30
2023-04-13T05:40:03.141Z,0.75
2023-04-13T05:42:31.273Z,0.60
2023-04-13T05:44:59.377Z,1.08
2023-04-13T05:47:27.513Z,0.70
2023-04-13T05:49:55.605Z,0.55
2023-04-13T05:52:24.122Z,0.70
2023-04-13T05:54:52.673Z,0.80
2023-04-13T05:57:22.187Z,1.20
2023-04-13T05:59:51.846Z,0.80
2023-04-13T06:02:21.097Z,0.70
2023-04-13T06:04:53.630Z,0.50
2023-04-13T06:07:23.175Z,0.65
2023-04-13T06:09:51.698Z,0.82
2023-04-13T06:12:21.175Z,0.30
2023-04-13T06:14:49.563Z,0.75
2023-04-13T06:17:18.035Z,0.60
2023-04-13T06:19:46.653Z,0.52
2023-04-13T06:22:14.743Z,0.65
2023-04-13T06:24:42.863Z,0.60
2023-04-13T06:27:11.262Z,0.30
2023-04-13T06:29:41.169Z,0.40
2023-04-13T06:32:09.449Z,0.30
2023-04-13T06:34:37.753Z,0.30
2023-04-13T06:37:06.097Z,0.52
2023-04-13T06:39:37.736Z,0.40
2023-04-13T06:42:06.771Z,0.40
2023-04-13T06:44:34.879Z,0.70
2023-04-13T06:47:05.843Z,0.50
2023-04-13T06:49:34.449Z,0.60
2023-04-13T06:52:02.980Z,0.40
2023-04-13T06:54:31.555Z,0.55
2023-04-13T06:57:01.780Z,0.90
2023-04-13T06:59:30.241Z,0.63
2023-04-13T07:01:58.483Z,0.35
2023-04-13T07:04:29.660Z,0.38
2023-04-13T07:07:00.016Z,0.70
2023-04-13T07:09:28.391Z,0.60
2023-04-13T07:11:57.963Z,0.50
2023-04-13T07:14:26.191Z,0.50
2023-04-13T07:16:54.325Z,0.50
2023-04-13T07:19:23.779Z,0.40
2023-04-13T07:21:53.569Z,0.65
2023-04-13T07:24:21.943Z,0.60
2023-04-13T07:26:50.027Z,0.38
2023-04-13T07:29:18.219Z,0.47
2023-04-13T07:31:48.452Z,0.45
2023-04-13T07:34:16.783Z,0.38
2023-04-13T07:36:45.099Z,0.98
2023-04-13T07:39:14.559Z,0.30
2023-04-13T07:41:42.739Z,0.75
2023-04-13T07:44:11.394Z,0.38
2023-04-13T07:46:39.881Z,0.50
2023-04-13T07:49:08.049Z,0.60
2023-04-13T07:51:36.407Z,0.38
2023-04-13T07:54:05.008Z,0.47
2023-04-13T07:56:36.458Z,0.45
2023-04-13T07:59:04.611Z,0.30
2023-04-13T08:01:33.066Z,0.40
2023-04-13T08:04:01.299Z,0.82
2023-04-13T08:06:29.616Z,0.65
2023-04-13T08:08:57.922Z,0.50
2023-04-13T08:11:26.204Z,0.40
2023-04-13T08:13:56.366Z,0.77
2023-04-13T08:16:24.630Z,0.28
2023-04-13T08:18:53.468Z,0.50
2023-04-13T08:21:21.856Z,0.60
2023-04-13T08:23:49.934Z,0.40
2023-04-13T08:26:19.884Z,0.50
2023-04-13T08:28:50.779Z,0.60
2023-04-13T08:31:20.724Z,0.45
2023-04-13T08:33:48.817Z,0.50
2023-04-13T08:36:17.473Z,0.63
2023-04-13T08:38:46.905Z,0.70
2023-04-13T08:41:17.273Z,0.57
2023-04-13T08:43:48.303Z,0.57
2023-04-13T08:46:21.711Z,0.50
2023-04-13T08:48:54.162Z,0.40
2023-04-13T08:51:23.816Z,0.40
2023-04-13T08:53:55.198Z,0.40
2023-04-13T08:56:34.090Z,0.40
2023-04-13T08:59:12.943Z,0.45
2023-04-13T09:01:43.066Z,0.25
2023-04-13T09:04:13.739Z,0.30
2023-04-13T09:06:45.053Z,0.85
2023-04-13T09:09:14.921Z,0.60
2023-04-13T09:11:45.727Z,0.43
2023-04-13T09:14:13.905Z,0.75
2023-04-13T09:16:45.116Z,0.70
2023-04-13T09:19:13.939Z,0.65
2023-04-13T09:21:43.287Z,0.60
2023-04-13T09:24:13.072Z,0.80
2023-04-13T09:26:42.463Z,0.60
2023-04-13T09:29:14.159Z,0.47
2023-04-13T09:31:45.678Z,0.45
2023-04-13T09:34:14.398Z,0.47
2023-04-13T09:36:54.251Z,0.40
2023-04-13T09:39:28.581Z,0.40
2023-04-13T09:41:58.138Z,0.30
2023-04-13T09:44:31.523Z,0.30
2023-04-13T09:47:02.137Z,0.40
2023-04-13T09:49:39.099Z,0.30
2023-04-13T09:52:08.342Z,0.30
2023-04-13T09:54:39.685Z,0.50
2023-04-13T09:57:08.177Z,0.63
2023-04-13T09:59:36.681Z,0.50
2023-04-13T10:02:07.261Z,0.93
2023-04-13T10:04:36.638Z,0.28
2023-04-13T10:07:06.804Z,0.40
2023-04-13T10:09:35.167Z,0.50
2023-04-13T10:12:04.894Z,0.40
2023-04-13T10:14:37.064Z,0.80
2023-04-13T10:17:39.411Z,0.63
2023-04-13T10:20:13.667Z,0.30
2023-04-13T10:22:44.987Z,0.30
2023-04-13T10:25:31.420Z,0.60
2023-04-13T10:28:02.049Z,0.40
2023-04-13T10:30:30.663Z,0.45
2023-04-13T10:33:07.882Z,0.47
2023-04-13T10:35:39.465Z,0.50
2023-04-13T10:38:10.777Z,0.45
2023-04-13T10:40:46.918Z,0.57
2023-04-13T10:43:27.275Z,0.50
2023-04-13T10:46:07.334Z,0.52
2023-04-13T10:48:37.320Z,0.30
2023-04-13T10:51:05.910Z,0.63
2023-04-13T10:53:35.536Z,0.60
2023-04-13T10:56:05.189Z,0.50
2023-04-13T10:58:34.486Z,0.40
2023-04-13T11:01:03.351Z,0.57
2023-04-13T11:03:31.896Z,0.30
2023-04-13T11:06:02.467Z,0.50
2023-04-13T11:08:32.917Z,0.28
2023-04-13T11:11:01.492Z,0.35
2023-04-13T11:13:30.561Z,0.40
2023-04-13T11:16:03.066Z,0.43
2023-04-13T11:18:31.562Z,0.38
2023-04-13T11:21:05.855Z,0.22
2023-04-13T11:23:36.193Z,0.35
2023-04-13T11:26:04.883Z,0.50
2023-04-13T11:28:43.710Z,0.40
2023-04-13T11:31:13.071Z,0.47
2023-04-13T11:33:41.500Z,0.50
2023-04-13T11:36:12.776Z,0.40
2023-04-13T11:38:42.179Z,0.40
2023-04-13T11:43:43.084Z,0.70
2023-04-13T11:46:13.710Z,0.50
2023-04-13T11:48:42.457Z,0.65
2023-04-13T11:51:12.861Z,0.60
2023-04-13T11:53:41.488Z,0.32
2023-04-13T11:56:09.919Z,0.22
2023-04-13T11:58:39.852Z,0.43
2023-04-13T12:03:53.601Z,0.35
2023-04-13T12:06:32.742Z,0.40
2023-04-13T12:09:09.077Z,0.40
2023-04-13T12:11:42.357Z,0.35
2023-04-13T12:19:27.564Z,0.45
2023-04-13T12:22:00.407Z,0.43
2023-04-13T12:24:39.421Z,0.40
2023-04-13T12:29:39.940Z,0.43
2023-04-13T12:32:14.407Z,0.50
2023-04-13T12:34:43.935Z,0.40
2023-04-13T12:37:13.746Z,0.50
2023-04-13T12:39:43.375Z,0.30
2023-04-13T12:42:12.201Z,0.40
2023-04-13T12:44:40.617Z,0.40
2023-04-13T12:47:09.051Z,0.40
2023-04-13T12:49:37.232Z,0.50
2023-04-13T12:52:05.806Z,0.40
2023-04-13T12:54:35.274Z,0.50
2023-04-13T12:57:03.462Z,0.60
2023-04-13T12:59:31.582Z,0.50
2023-04-13T13:01:59.748Z,0.40
2023-04-13T13:04:30.224Z,0.40
2023-04-13T13:06:58.425Z,0.40
2023-04-13T13:09:27.091Z,0.30
2023-04-13T13:11:57.596Z,0.38
2023-04-13T13:14:25.873Z,0.45
2023-04-13T13:16:54.372Z,0.40
2023-04-13T13:19:22.587Z,0.40
2023-04-13T13:21:50.758Z,0.50
2023-04-13T13:24:19.364Z,0.60
2023-04-13T13:29:24.181Z,0.32
2023-04-13T13:31:52.676Z,0.50
2023-04-13T13:34:21.377Z,0.50
2023-04-13T13:36:49.599Z,0.38
2023-04-13T13:39:21.014Z,0.43
2023-04-13T13:41:49.159Z,0.60
2023-04-13T13:44:17.628Z,0.55
2023-04-13T13:46:47.124Z,0.40
2023-04-13T13:49:15.193Z,0.40
2023-04-13T13:51:43.994Z,0.60
2023-04-13T13:54:12.123Z,0.50
2023-04-13T13:56:40.275Z,0.35
2023-04-13T13:59:08.699Z,0.50
2023-04-13T14:01:38.047Z,0.32
2023-04-13T14:04:08.084Z,0.50
2023-04-13T14:06:36.227Z,0.40
2023-04-13T14:09:05.268Z,0.50
2023-04-13T14:11:34.203Z,0.60
2023-04-13T14:14:10.896Z,0.50
2023-04-13T14:16:43.207Z,0.43
2023-04-13T14:19:13.070Z,0.65
2023-04-13T14:21:42.605Z,0.40
2023-04-13T14:24:11.117Z,0.50
2023-04-13T14:26:39.197Z,0.40
2023-04-13T14:29:07.966Z,0.60
2023-04-13T14:31:36.180Z,0.43
2023-04-13T14:34:04.666Z,0.50
2023-04-13T14:36:34.392Z,0.45
2023-04-13T14:39:03.659Z,0.47
2023-04-13T14:41:32.171Z,0.70
2023-04-13T14:44:00.463Z,0.65
2023-04-13T14:46:28.877Z,0.68
2023-04-13T14:48:57.522Z,0.52
2023-04-13T14:51:25.755Z,0.60
2023-04-13T14:53:56.420Z,0.45
2023-04-13T14:56:26.420Z,0.40
2023-04-13T14:58:54.830Z,0.50
2023-04-13T15:01:24.353Z,0.60
2023-04-13T15:03:54.507Z,0.50
2023-04-13T15:06:23.113Z,0.60
2023-04-13T15:08:51.517Z,0.60
2023-04-13T15:11:21.319Z,0.57
2023-04-13T15:13:49.882Z,0.50
2023-04-13T15:16:17.983Z,0.60
2023-04-13T15:18:46.499Z,0.50
2023-04-13T15:21:14.595Z,0.50
2023-04-13T15:23:42.753Z,0.47
2023-04-13T15:26:18.164Z,0.40
2023-04-13T15:28:47.834Z,0.50
2023-04-13T15:31:16.438Z,0.50
2023-04-13T15:33:44.528Z,0.50
2023-04-13T15:36:15.911Z,0.75
2023-04-13T15:38:44.160Z,0.50
2023-04-13T15:41:12.392Z,0.70
2023-04-13T15:43:41.334Z,0.50
2023-04-13T15:46:11.306Z,0.50
2023-04-13T15:48:39.740Z,0.60
2023-04-13T15:51:08.389Z,0.60
2023-04-13T15:53:36.634Z,1.00
2023-04-13T15:56:05.072Z,0.82
2023-04-13T15:58:33.139Z,0.80
2023-04-13T16:01:03.829Z,0.60
2023-04-13T16:03:34.974Z,0.88
2023-04-13T16:06:03.887Z,0.80
2023-04-13T16:08:32.511Z,0.70
2023-04-13T16:11:01.400Z,0.70
2023-04-13T16:13:47.378Z,0.90
2023-04-13T16:16:18.437Z,0.60
2023-04-13T16:18:48.291Z,0.47
2023-04-13T16:21:19.452Z,0.60
2023-04-13T16:23:47.620Z,0.60
2023-04-13T16:26:15.698Z,0.73
2023-04-13T16:28:43.958Z,0.90
2023-04-13T16:31:12.232Z,0.70
2023-04-13T16:33:40.335Z,0.70
2023-04-13T16:36:11.100Z,0.60
2023-04-13T16:38:40.604Z,0.60
2023-04-13T16:41:08.933Z,0.80
2023-04-13T16:43:37.124Z,0.60
2023-04-13T16:46:06.122Z,0.60
2023-04-13T16:48:34.261Z,0.60
2023-04-13T16:51:03.478Z,0.80
2023-04-13T16:53:33.197Z,0.65
2023-04-13T16:56:01.282Z,0.82
2023-04-13T16:58:29.410Z,0.63
2023-04-13T17:00:57.567Z,0.70
2023-04-13T17:03:25.893Z,0.60
2023-04-13T17:05:55.414Z,0.60
2023-04-13T17:08:23.794Z,0.57
2023-04-13T17:10:53.298Z,0.75
2023-04-13T17:13:21.820Z,0.77
2023-04-13T17:15:49.950Z,0.80
2023-04-13T17:18:18.225Z,0.68
2023-04-13T17:20:53.588Z,0.60
2023-04-13T17:23:22.664Z,0.57
2023-04-13T17:25:52.721Z,0.60
2023-04-13T17:28:23.112Z,0.50
2023-04-13T17:30:51.255Z,0.60
2023-04-13T17:33:20.055Z,0.75
2023-04-13T17:35:48.128Z,0.80
2023-04-13T17:38:16.237Z,0.60
2023-04-13T17:40:45.688Z,0.80
2023-04-13T17:43:15.237Z,0.60
2023-04-13T17:45:43.427Z,0.70
2023-04-13T17:48:11.650Z,0.60
2023-04-13T17:50:40.130Z,1.00
2023-04-13T17:53:08.232Z,0.80
2023-04-13T17:55:37.712Z,0.90
2023-04-13T17:58:06.211Z,0.80
2023-04-13T18:00:36.050Z,0.98
2023-04-13T18:03:05.716Z,0.77
2023-04-13T18:05:33.986Z,0.70
2023-04-13T18:08:02.131Z,1.10
2023-04-13T18:10:31.309Z,0.80
2023-04-13T18:13:00.943Z,0.98
2023-04-13T18:15:29.386Z,1.00
2023-04-13T18:17:59.486Z,0.60
2023-04-13T18:20:27.731Z,0.90
2023-04-13T18:22:56.072Z,0.98
2023-04-13T18:25:24.175Z,1.30
2023-04-13T18:27:52.303Z,0.90
2023-04-13T18:30:21.058Z,1.00
2023-04-13T18:32:51.646Z,0.95
2023-04-13T18:35:21.337Z,1.00
2023-04-13T18:37:49.811Z,0.90
2023-04-13T18:40:17.929Z,1.10
2023-04-13T18:42:50.244Z,1.00
2023-04-13T18:45:19.726Z,1.10
2023-04-13T18:47:47.885Z,1.30
2023-04-13T18:50:16.614Z,1.30
2023-04-13T18:52:46.153Z,1.27
2023-04-13T18:55:14.429Z,1.08
2023-04-13T18:57:42.963Z,1.10
2023-04-13T19:00:12.256Z,1.10
2023-04-13T19:02:41.396Z,1.20
2023-04-13T19:05:13.403Z,1.27
2023-04-13T19:07:42.742Z,2.20
2023-04-13T19:10:12.546Z,2.17
2023-04-13T19:12:41.337Z,1.70
2023-04-13T19:15:09.923Z,1.38
2023-04-13T19:17:38.354Z,1.70
2023-04-13T19:20:10.596Z,1.48
2023-04-13T19:22:38.711Z,1.65
2023-04-13T19:25:14.390Z,1.67
2023-04-13T19:27:44.711Z,1.90
2023-04-13T19:30:13.689Z,1.88
2023-04-13T19:32:46.211Z,2.00
2023-04-13T19:35:14.873Z,2.05
2023-04-13T19:37:43.173Z,1.77
2023-04-13T19:40:13.772Z,1.45
2023-04-13T19:42:45.147Z,1.50
2023-04-13T19:45:17.200Z,1.40
2023-04-13T19:47:45.455Z,1.58
2023-04-13T19:50:15.599Z,1.60
2023-04-13T19:52:47.424Z,1.30
2023-04-13T19:55:15.594Z,1.60
2023-04-13T19:57:45.078Z,1.75
2023-04-13T20:00:22.733Z,1.13
2023-04-13T20:02:52.405Z,1.27
2023-04-13T20:05:21.636Z,1.40
2023-04-13T20:07:50.137Z,1.50
2023-04-13T20:10:18.665Z,1.33
2023-04-13T20:12:48.127Z,1.50
2023-04-13T20:15:16.822Z,1.73
2023-04-13T20:17:44.952Z,1.70
2023-04-13T20:20:13.569Z,1.67
2023-04-13T20:22:42.098Z,1.85
2023-04-13T20:25:11.157Z,1.40
2023-04-13T20:27:41.974Z,1.50
2023-04-13T20:30:12.914Z,1.08
2023-04-13T20:32:41.364Z,1.10
2023-04-13T20:35:10.654Z,1.52
2023-04-13T20:37:39.166Z,1.50
2023-04-13T20:40:11.118Z,1.50
2023-04-13T20:42:42.212Z,1.20
2023-04-13T20:45:14.979Z,1.48
2023-04-13T20:47:43.773Z,1.80
2023-04-13T20:50:12.940Z,1.40
2023-04-13T20:52:41.852Z,2.30
2023-04-13T20:55:12.100Z,1.92
2023-04-13T20:57:42.164Z,1.67
2023-04-13T21:00:15.584Z,1.75
2023-04-13T21:02:44.617Z,1.90
2023-04-13T21:05:12.955Z,1.33
2023-04-13T21:07:42.055Z,1.90
2023-04-13T21:10:12.146Z,1.73
2023-04-13T21:12:40.532Z,2.10
2023-04-13T21:15:10.046Z,2.05
2023-04-13T21:17:40.828Z,1.70
2023-04-13T21:20:10.056Z,1.58
2023-04-13T21:22:38.272Z,1.70
2023-04-13T21:25:07.385Z,1.80
2023-04-13T21:27:35.586Z,2.03
2023-04-13T21:30:03.716Z,1.88
2023-04-13T21:32:32.196Z,1.83
2023-04-13T21:35:01.692Z,1.60
2023-04-13T21:37:30.518Z,1.70
2023-04-13T21:39:59.086Z,1.80
2023-04-13T21:42:27.449Z,1.92
2023-04-13T21:44:57.159Z,2.03
2023-04-13T21:47:25.397Z,2.13
2023-04-13T21:49:53.496Z,1.95
2023-04-13T21:52:23.022Z,2.00
2023-04-13T21:54:51.643Z,2.03
2023-04-13T21:57:20.291Z,2.00
2023-04-13T21:59:48.357Z,1.80
2023-04-13T22:02:16.848Z,1.95
2023-04-13T22:04:45.016Z,1.58
2023-04-13T22:07:13.255Z,2.75
2023-04-13T22:09:42.724Z,3.22
2023-04-13T22:12:11.832Z,3.50
2023-04-13T22:14:39.935Z,2.53
2023-04-13T22:17:08.149Z,2.25
2023-04-13T22:19:36.229Z,2.20
2023-04-13T22:22:04.672Z,2.35
2023-04-13T22:24:32.771Z,1.73
2023-04-13T22:27:04.736Z,2.17
2023-04-13T22:29:33.182Z,2.22
2023-04-13T22:32:01.744Z,3.35
2023-04-13T22:34:29.809Z,6.10
2023-04-13T22:36:57.924Z,6.70
2023-04-13T22:39:26.005Z,8.15
2023-04-13T22:41:54.400Z,6.03
2023-04-13T22:44:23.828Z,4.75
2023-04-13T22:46:54.990Z,3.97
2023-04-13T22:49:23.104Z,4.40
2023-04-13T22:51:51.543Z,4.57
2023-04-13T22:54:19.616Z,4.47
2023-04-13T22:56:48.490Z,4.20
2023-04-13T22:59:17.597Z,4.90
2023-04-13T23:01:47.294Z,5.50
2023-04-13T23:04:16.251Z,4.05
2023-04-13T23:06:45.063Z,2.97
2023-04-13T23:09:13.165Z,3.22
2023-04-13T23:11:41.516Z,2.60
2023-04-13T23:14:09.827Z,2.42
2023-04-13T23:16:38.056Z,1.80
2023-04-13T23:19:07.847Z,2.20
2023-04-13T23:21:36.103Z,2.38
2023-04-13T23:24:04.256Z,2.50
2023-04-13T23:26:32.781Z,2.85
2023-04-13T23:29:01.284Z,2.67
2023-04-13T23:31:30.482Z,2.75
2023-04-13T23:33:59.028Z,2.92
2023-04-13T23:36:28.770Z,3.90
2023-04-13T23:38:57.672Z,3.17
2023-04-13T23:41:25.885Z,3.42
2023-04-13T23:43:54.271Z,3.35
2023-04-13T23:46:23.492Z,2.95
2023-04-13T23:48:51.963Z,3.20
2023-04-13T23:51:20.328Z,3.00
2023-04-13T23:53:49.802Z,2.33
2023-04-13T23:56:18.008Z,3.13
2023-04-13T23:58:46.408Z,3.13
